Airfield :
LOGIN :

Register | Disclaimer

   EN    FR    IT 

 










Legend :    VFR   Marginal VFR   IFR   Intensive IFR   Very Intensive IFR
Visi :
Ceiling :
>= 8 km
>= 3000ft
5 to 8 km
1000 to 3000 ft
1500m to 5 km
500 to 1000 ft
800 to 1500m
200 to 500 ft
< 800m
< 200 ft
Symbols :   Thunderstorms  Fog  Heavy snow  Heavy precipitations  Wind > 20 kt
SIGMETs :     Misc.  Thunderstorms  Icing  Turbulence  Mountain Waves  Volcanic Ashes







- Airport Elevation : 370 ft


EBBE - Beauvechain AB

CURRENT METAR :
  • 210955Z AUTO 23006KT 7000 SCT120/// BKN130/// 02/01 Q1017 WHT

EXPIRED METARs :
  • 210925Z AUTO 23006KT 6000 FEW130/// 01/01 Q1016 WHT
  • 210855Z AUTO 23005KT 5000 NCD 01/00 Q1016 WHT
  • 210825Z AUTO 23006KT 3900 BR FEW130/// 01/00 Q1016 GRN
  • 210755Z AUTO 23005KT 3600 BR BKN130/// 01/00 Q1015 YLO
  • 210725Z AUTO 24004KT 3600 BR NCD 00/M00 Q1015 YLO

Expired Forecast.
No reported NOTAMs for that airfield.



MET'MAP, your aeronautical weather chart ! - Copyright ORBIFLY December 2007 - Disclaimer

ORBIFLY MET'MAP TEAM :

Programming & Development : Alexandra Zaïnal
Concept & Development : Baudouin d'Aumeries
Co-Development & Prog : Marc-Olivier Méhu
Technical & hardware support : Manuel Goepfert

Contact : metmap@orbifly.com




SOURCES & CREDITS :

   NOAA